Aviation Digital Data Service (ADDS)

Output produced by METARs form (0943 UTC 23 July 2019)
found at http://www.aviationweather.gov/metar/data/
 
METAR text: LQMO 230900Z VRB04KT 9999 FEW045 33/11 Q1016
Conditions at: LQMO (MOSTAR AIRPORT , BA) observed 0900 UTC 23 July 2019
Temperature: 33.0°C (91°F)
Dewpoint: 11.0°C (52°F) [RH = 26%]
Pressure (altimeter): 30.00 inches Hg (1016.0 mb)
Winds: variable direction winds at 5 MPH (4 knots; 2.1 m/s)
Visibility: 6 or more miles (10+ km)
Ceiling: at least 12,000 feet AGL
Clouds: few clouds at 4500 feet AGL
Weather: no significant weather observed at this time

METAR text: LQMO 230800Z 28004KT 230V320 9999 FEW045 31/11 Q1016
Conditions at: LQMO (MOSTAR AIRPORT , BA) observed 0800 UTC 23 July 2019
Temperature: 31.0°C (88°F)
Dewpoint: 11.0°C (52°F) [RH = 29%]
Pressure (altimeter): 30.00 inches Hg (1016.0 mb)
Winds: from the W (280 degrees) at 5 MPH (4 knots; 2.1 m/s)
Visibility: 6 or more miles (10+ km)
Ceiling: at least 12,000 feet AGL
Clouds: few clouds at 4500 feet AGL
Weather: no significant weather observed at this time

METAR text: LQMO 230700Z 17005KT 100V230 9999 FEW045 30/12 Q1016
Conditions at: LQMO (MOSTAR AIRPORT , BA) observed 0700 UTC 23 July 2019
Temperature: 30.0°C (86°F)
Dewpoint: 12.0°C (54°F) [RH = 33%]
Pressure (altimeter): 30.00 inches Hg (1016.0 mb)
Winds: from the S (170 degrees) at 6 MPH (5 knots; 2.6 m/s)
Visibility: 6 or more miles (10+ km)
Ceiling: at least 12,000 feet AGL
Clouds: few clouds at 4500 feet AGL
Weather: no significant weather observed at this time

METAR text: LQMO 230600Z 21004KT 160V260 9999 FEW045 26/15 Q1016
Conditions at: LQMO (MOSTAR AIRPORT , BA) observed 0600 UTC 23 July 2019
Temperature: 26.0°C (79°F)
Dewpoint: 15.0°C (59°F) [RH = 51%]
Pressure (altimeter): 30.00 inches Hg (1016.0 mb)
Winds: from the SSW (210 degrees) at 5 MPH (4 knots; 2.1 m/s)
Visibility: 6 or more miles (10+ km)
Ceiling: at least 12,000 feet AGL
Clouds: few clouds at 4500 feet AGL
Weather: no significant weather observed at this time

METAR text: LQMO 230500Z 16004KT 100V180 9999 FEW040 24/14 Q1016
Conditions at: LQMO (MOSTAR AIRPORT , BA) observed 0500 UTC 23 July 2019
Temperature: 24.0°C (75°F)
Dewpoint: 14.0°C (57°F) [RH = 54%]
Pressure (altimeter): 30.00 inches Hg (1016.0 mb)
Winds: from the SSE (160 degrees) at 5 MPH (4 knots; 2.1 m/s)
Visibility: 6 or more miles (10+ km)
Ceiling: at least 12,000 feet AGL
Clouds: few clouds at 4000 feet AGL
Weather: no significant weather observed at this time

METAR text: LQMO 230400Z 19004KT 100V230 9999 FEW040 22/14 Q1016
Conditions at: LQMO (MOSTAR AIRPORT , BA) observed 0400 UTC 23 July 2019
Temperature: 22.0°C (72°F)
Dewpoint: 14.0°C (57°F) [RH = 60%]
Pressure (altimeter): 30.00 inches Hg (1016.0 mb)
Winds: from the S (190 degrees) at 5 MPH (4 knots; 2.1 m/s)
Visibility: 6 or more miles (10+ km)
Ceiling: at least 12,000 feet AGL
Clouds: few clouds at 4000 feet AGL
Weather: no significant weather observed at this time

METAR text: LQMO 230300Z VRB05KT 9999 FEW040 21/15 Q1016
Conditions at: LQMO (MOSTAR AIRPORT , BA) observed 0300 UTC 23 July 2019
Temperature: 21.0°C (70°F)
Dewpoint: 15.0°C (59°F) [RH = 69%]
Pressure (altimeter): 30.00 inches Hg (1016.0 mb)
Winds: variable direction winds at 6 MPH (5 knots; 2.6 m/s)
Visibility: 6 or more miles (10+ km)
Ceiling: at least 12,000 feet AGL
Clouds: few clouds at 4000 feet AGL
Weather: no significant weather observed at this time

METAR text: LQMO 230200Z VRB02KT CAVOK 22/15 Q1016
Conditions at: LQMO (MOSTAR AIRPORT , BA) observed 0200 UTC 23 July 2019
Temperature: 22.0°C (72°F)
Dewpoint: 15.0°C (59°F) [RH = 65%]
Pressure (altimeter): 30.00 inches Hg (1016.0 mb)
Winds: variable direction winds at 2 MPH (2 knots; 1.0 m/s)
Visibility: 6 or more miles (10+ km)
Ceiling: ceiling and visibility are OK
Clouds: unknown
Weather: no significant weather observed at this time

METAR text: LQMO 230100Z VRB02KT CAVOK 24/16 Q1016
Conditions at: LQMO (MOSTAR AIRPORT , BA) observed 0100 UTC 23 July 2019
Temperature: 24.0°C (75°F)
Dewpoint: 16.0°C (61°F) [RH = 61%]
Pressure (altimeter): 30.00 inches Hg (1016.0 mb)
Winds: variable direction winds at 2 MPH (2 knots; 1.0 m/s)
Visibility: 6 or more miles (10+ km)
Ceiling: ceiling and visibility are OK
Clouds: unknown
Weather: no significant weather observed at this time

METAR text: LQMO 230000Z VRB03KT CAVOK 25/16 Q1017
Conditions at: LQMO (MOSTAR AIRPORT , BA) observed 0000 UTC 23 July 2019
Temperature: 25.0°C (77°F)
Dewpoint: 16.0°C (61°F) [RH = 57%]
Pressure (altimeter): 30.03 inches Hg (1017.0 mb)
Winds: variable direction winds at 3 MPH (3 knots; 1.5 m/s)
Visibility: 6 or more miles (10+ km)
Ceiling: ceiling and visibility are OK
Clouds: unknown
Weather: no significant weather observed at this time

METAR text: LQMO 222300Z 19005KT 130V210 CAVOK 26/17 Q1017
Conditions at: LQMO (MOSTAR AIRPORT , BA) observed 2300 UTC 22 July 2019
Temperature: 26.0°C (79°F)
Dewpoint: 17.0°C (63°F) [RH = 58%]
Pressure (altimeter): 30.03 inches Hg (1017.0 mb)
Winds: from the S (190 degrees) at 6 MPH (5 knots; 2.6 m/s)
Visibility: 6 or more miles (10+ km)
Ceiling: ceiling and visibility are OK
Clouds: unknown
Weather: no significant weather observed at this time

METAR text: LQMO 222200Z VRB04KT CAVOK 27/16 Q1017
Conditions at: LQMO (MOSTAR AIRPORT , BA) observed 2200 UTC 22 July 2019
Temperature: 27.0°C (81°F)
Dewpoint: 16.0°C (61°F) [RH = 51%]
Pressure (altimeter): 30.03 inches Hg (1017.0 mb)
Winds: variable direction winds at 5 MPH (4 knots; 2.1 m/s)
Visibility: 6 or more miles (10+ km)
Ceiling: ceiling and visibility are OK
Clouds: unknown
Weather: no significant weather observed at this time

METAR text: LQMO 222100Z VRB05KT CAVOK 28/16 Q1017
Conditions at: LQMO (MOSTAR AIRPORT , BA) observed 2100 UTC 22 July 2019
Temperature: 28.0°C (82°F)
Dewpoint: 16.0°C (61°F) [RH = 48%]
Pressure (altimeter): 30.03 inches Hg (1017.0 mb)
Winds: variable direction winds at 6 MPH (5 knots; 2.6 m/s)
Visibility: 6 or more miles (10+ km)
Ceiling: ceiling and visibility are OK
Clouds: unknown
Weather: no significant weather observed at this time

METAR text: LQMO 222000Z VRB03KT 9999 FEW060 25/19 Q1017
Conditions at: LQMO (MOSTAR AIRPORT , BA) observed 2000 UTC 22 July 2019
Temperature: 25.0°C (77°F)
Dewpoint: 19.0°C (66°F) [RH = 69%]
Pressure (altimeter): 30.03 inches Hg (1017.0 mb)
Winds: variable direction winds at 3 MPH (3 knots; 1.5 m/s)
Visibility: 6 or more miles (10+ km)
Ceiling: at least 12,000 feet AGL
Clouds: few clouds at 6000 feet AGL
Weather: no significant weather observed at this time

METAR text: LQMO 221900Z VRB02KT 9999 FEW055 26/19 Q1017
Conditions at: LQMO (MOSTAR AIRPORT , BA) observed 1900 UTC 22 July 2019
Temperature: 26.0°C (79°F)
Dewpoint: 19.0°C (66°F) [RH = 65%]
Pressure (altimeter): 30.03 inches Hg (1017.0 mb)
Winds: variable direction winds at 2 MPH (2 knots; 1.0 m/s)
Visibility: 6 or more miles (10+ km)
Ceiling: at least 12,000 feet AGL
Clouds: few clouds at 5500 feet AGL
Weather: no significant weather observed at this time

METAR text: LQMO 221800Z 29003KT 9999 FEW045 28/18 Q1017
Conditions at: LQMO (MOSTAR AIRPORT , BA) observed 1800 UTC 22 July 2019
Temperature: 28.0°C (82°F)
Dewpoint: 18.0°C (64°F) [RH = 55%]
Pressure (altimeter): 30.03 inches Hg (1017.0 mb)
Winds: from the WNW (290 degrees) at 3 MPH (3 knots; 1.5 m/s)
Visibility: 6 or more miles (10+ km)
Ceiling: at least 12,000 feet AGL
Clouds: few clouds at 4500 feet AGL
Weather: no significant weather observed at this time

METAR text: LQMO 221700Z VRB03KT 9999 FEW050 SCT088 28/18 Q1017
Conditions at: LQMO (MOSTAR AIRPORT , BA) observed 1700 UTC 22 July 2019
Temperature: 28.0°C (82°F)
Dewpoint: 18.0°C (64°F) [RH = 55%]
Pressure (altimeter): 30.03 inches Hg (1017.0 mb)
Winds: variable direction winds at 3 MPH (3 knots; 1.5 m/s)
Visibility: 6 or more miles (10+ km)
Ceiling: at least 12,000 feet AGL
Clouds: few clouds at 5000 feet AGL
scattered clouds at 8800 feet AGL
Weather: no significant weather observed at this time

METAR text: LQMO 221600Z 24004KT 180V310 9999 FEW044 FEW045TCU SCT091 30/18 Q1016
Conditions at: LQMO (MOSTAR AIRPORT , BA) observed 1600 UTC 22 July 2019
Temperature: 30.0°C (86°F)
Dewpoint: 18.0°C (64°F) [RH = 49%]
Pressure (altimeter): 30.00 inches Hg (1016.0 mb)
Winds: from the WSW (240 degrees) at 5 MPH (4 knots; 2.1 m/s)
Visibility: 6 or more miles (10+ km)
Ceiling: at least 12,000 feet AGL
Clouds: few clouds at 4400 feet AGL
few clouds at 4500 feet AGL
scattered clouds at 9100 feet AGL
Weather: no significant weather observed at this time

METAR text: LQMO 221500Z 19008KT 150V230 9999 FEW043 FEW045TCU 31/17 Q1016
Conditions at: LQMO (MOSTAR AIRPORT , BA) observed 1500 UTC 22 July 2019
Temperature: 31.0°C (88°F)
Dewpoint: 17.0°C (63°F) [RH = 43%]
Pressure (altimeter): 30.00 inches Hg (1016.0 mb)
Winds: from the S (190 degrees) at 9 MPH (8 knots; 4.1 m/s)
Visibility: 6 or more miles (10+ km)
Ceiling: at least 12,000 feet AGL
Clouds: few clouds at 4300 feet AGL
few clouds at 4500 feet AGL
Weather: no significant weather observed at this time

METAR text: LQMO 221400Z 30010KT 9999 VCTS FEW035CB FEW040 SCT090 37/15 Q1015
Conditions at: LQMO (MOSTAR AIRPORT , BA) observed 1400 UTC 22 July 2019
Temperature: 37.0°C (99°F)
Dewpoint: 15.0°C (59°F) [RH = 27%]
Pressure (altimeter): 29.97 inches Hg (1015.0 mb)
Winds: from the WNW (300 degrees) at 12 MPH (10 knots; 5.1 m/s)
Visibility: 6 or more miles (10+ km)
Ceiling: at least 12,000 feet AGL
Clouds: few clouds at 3500 feet AGL
few clouds at 4000 feet AGL
scattered clouds at 9000 feet AGL
Weather: VCTS  (thunderstorm in vicinity)

METAR text: LQMO 221300Z 29010KT 260V350 9999 FEW042 SCT045TCU 36/14 Q1015
Conditions at: LQMO (MOSTAR AIRPORT , BA) observed 1300 UTC 22 July 2019
Temperature: 36.0°C (97°F)
Dewpoint: 14.0°C (57°F) [RH = 27%]
Pressure (altimeter): 29.97 inches Hg (1015.0 mb)
Winds: from the WNW (290 degrees) at 12 MPH (10 knots; 5.1 m/s)
Visibility: 6 or more miles (10+ km)
Ceiling: at least 12,000 feet AGL
Clouds: few clouds at 4200 feet AGL
scattered clouds at 4500 feet AGL
Weather: no significant weather observed at this time

METAR text: LQMO 221200Z 34011KT 9999 FEW042 SCT045TCU 36/15 Q1016
Conditions at: LQMO (MOSTAR AIRPORT , BA) observed 1200 UTC 22 July 2019
Temperature: 36.0°C (97°F)
Dewpoint: 15.0°C (59°F) [RH = 29%]
Pressure (altimeter): 30.00 inches Hg (1016.0 mb)
Winds: from the NNW (340 degrees) at 13 MPH (11 knots; 5.7 m/s)
Visibility: 6 or more miles (10+ km)
Ceiling: at least 12,000 feet AGL
Clouds: few clouds at 4200 feet AGL
scattered clouds at 4500 feet AGL
Weather: no significant weather observed at this time

METAR text: LQMO 221100Z 31008KT 270V360 9999 FEW042 FEW045TCU 36/14 Q1016
Conditions at: LQMO (MOSTAR AIRPORT , BA) observed 1100 UTC 22 July 2019
Temperature: 36.0°C (97°F)
Dewpoint: 14.0°C (57°F) [RH = 27%]
Pressure (altimeter): 30.00 inches Hg (1016.0 mb)
Winds: from the NW (310 degrees) at 9 MPH (8 knots; 4.1 m/s)
Visibility: 6 or more miles (10+ km)
Ceiling: at least 12,000 feet AGL
Clouds: few clouds at 4200 feet AGL
few clouds at 4500 feet AGL
Weather: no significant weather observed at this time

METAR text: LQMO 221000Z 36009KT 290V050 9999 FEW042 35/16 Q1017
Conditions at: LQMO (MOSTAR AIRPORT , BA) observed 1000 UTC 22 July 2019
Temperature: 35.0°C (95°F)
Dewpoint: 16.0°C (61°F) [RH = 32%]
Pressure (altimeter): 30.03 inches Hg (1017.0 mb)
Winds: from the N (360 degrees) at 10 MPH (9 knots; 4.6 m/s)
Visibility: 6 or more miles (10+ km)
Ceiling: at least 12,000 feet AGL
Clouds: few clouds at 4200 feet AGL
Weather: no significant weather observed at this time

METAR text: LQMO 220900Z VRB03KT 9999 FEW050 33/16 Q1017
Conditions at: LQMO (MOSTAR AIRPORT , BA) observed 0900 UTC 22 July 2019
Temperature: 33.0°C (91°F)
Dewpoint: 16.0°C (61°F) [RH = 36%]
Pressure (altimeter): 30.03 inches Hg (1017.0 mb)
Winds: variable direction winds at 3 MPH (3 knots; 1.5 m/s)
Visibility: 6 or more miles (10+ km)
Ceiling: at least 12,000 feet AGL
Clouds: few clouds at 5000 feet AGL
Weather: no significant weather observed at this time

METAR text: LQMO 220800Z VRB02KT 9999 FEW050 30/16 Q1018
Conditions at: LQMO (MOSTAR AIRPORT , BA) observed 0800 UTC 22 July 2019
Temperature: 30.0°C (86°F)
Dewpoint: 16.0°C (61°F) [RH = 43%]
Pressure (altimeter): 30.06 inches Hg (1018.0 mb)
Winds: variable direction winds at 2 MPH (2 knots; 1.0 m/s)
Visibility: 6 or more miles (10+ km)
Ceiling: at least 12,000 feet AGL
Clouds: few clouds at 5000 feet AGL
Weather: no significant weather observed at this time

METAR text: LQMO 220700Z 15003KT 100V240 CAVOK 27/15 Q1018
Conditions at: LQMO (MOSTAR AIRPORT , BA) observed 0700 UTC 22 July 2019
Temperature: 27.0°C (81°F)
Dewpoint: 15.0°C (59°F) [RH = 48%]
Pressure (altimeter): 30.06 inches Hg (1018.0 mb)
Winds: from the SSE (150 degrees) at 3 MPH (3 knots; 1.5 m/s)
Visibility: 6 or more miles (10+ km)
Ceiling: ceiling and visibility are OK
Clouds: unknown
Weather: no significant weather observed at this time

METAR text: LQMO 220600Z VRB02KT CAVOK 24/15 Q1018
Conditions at: LQMO (MOSTAR AIRPORT , BA) observed 0600 UTC 22 July 2019
Temperature: 24.0°C (75°F)
Dewpoint: 15.0°C (59°F) [RH = 57%]
Pressure (altimeter): 30.06 inches Hg (1018.0 mb)
Winds: variable direction winds at 2 MPH (2 knots; 1.0 m/s)
Visibility: 6 or more miles (10+ km)
Ceiling: ceiling and visibility are OK
Clouds: unknown
Weather: no significant weather observed at this time

METAR text: LQMO 220500Z VRB02KT CAVOK 20/15 Q1018
Conditions at: LQMO (MOSTAR AIRPORT , BA) observed 0500 UTC 22 July 2019
Temperature: 20.0°C (68°F)
Dewpoint: 15.0°C (59°F) [RH = 73%]
Pressure (altimeter): 30.06 inches Hg (1018.0 mb)
Winds: variable direction winds at 2 MPH (2 knots; 1.0 m/s)
Visibility: 6 or more miles (10+ km)
Ceiling: ceiling and visibility are OK
Clouds: unknown
Weather: no significant weather observed at this time

METAR text: LQMO 220430Z VRB02KT CAVOK 19/15 Q1018
Conditions at: LQMO (MOSTAR AIRPORT , BA) observed 0430 UTC 22 July 2019
Temperature: 19.0°C (66°F)
Dewpoint: 15.0°C (59°F) [RH = 78%]
Pressure (altimeter): 30.06 inches Hg (1018.0 mb)
Winds: variable direction winds at 2 MPH (2 knots; 1.0 m/s)
Visibility: 6 or more miles (10+ km)
Ceiling: ceiling and visibility are OK
Clouds: unknown
Weather: no significant weather observed at this time

METAR text: LQMO 220400Z VRB02KT CAVOK 19/15 Q1018
Conditions at: LQMO (MOSTAR AIRPORT , BA) observed 0400 UTC 22 July 2019
Temperature: 19.0°C (66°F)
Dewpoint: 15.0°C (59°F) [RH = 78%]
Pressure (altimeter): 30.06 inches Hg (1018.0 mb)
Winds: variable direction winds at 2 MPH (2 knots; 1.0 m/s)
Visibility: 6 or more miles (10+ km)
Ceiling: ceiling and visibility are OK
Clouds: unknown
Weather: no significant weather observed at this time

METAR text: LQMO 220330Z VRB02KT CAVOK 19/15 Q1018
Conditions at: LQMO (MOSTAR AIRPORT , BA) observed 0330 UTC 22 July 2019
Temperature: 19.0°C (66°F)
Dewpoint: 15.0°C (59°F) [RH = 78%]
Pressure (altimeter): 30.06 inches Hg (1018.0 mb)
Winds: variable direction winds at 2 MPH (2 knots; 1.0 m/s)
Visibility: 6 or more miles (10+ km)
Ceiling: ceiling and visibility are OK
Clouds: unknown
Weather: no significant weather observed at this time

METAR text: LQMO 220300Z VRB01KT 9999 FEW050 19/15 Q1018
Conditions at: LQMO (MOSTAR AIRPORT , BA) observed 0300 UTC 22 July 2019
Temperature: 19.0°C (66°F)
Dewpoint: 15.0°C (59°F) [RH = 78%]
Pressure (altimeter): 30.06 inches Hg (1018.0 mb)
Winds: variable direction winds at 1 MPH (1 knots; 0.5 m/s)
Visibility: 6 or more miles (10+ km)
Ceiling: at least 12,000 feet AGL
Clouds: few clouds at 5000 feet AGL
Weather: no significant weather observed at this time

METAR text: LQMO 220200Z VRB01KT 9999 FEW050 20/15 Q1018
Conditions at: LQMO (MOSTAR AIRPORT , BA) observed 0200 UTC 22 July 2019
Temperature: 20.0°C (68°F)
Dewpoint: 15.0°C (59°F) [RH = 73%]
Pressure (altimeter): 30.06 inches Hg (1018.0 mb)
Winds: variable direction winds at 1 MPH (1 knots; 0.5 m/s)
Visibility: 6 or more miles (10+ km)
Ceiling: at least 12,000 feet AGL
Clouds: few clouds at 5000 feet AGL
Weather: no significant weather observed at this time

METAR text: LQMO 220100Z VRB02KT 9999 FEW050 20/15 Q1018
Conditions at: LQMO (MOSTAR AIRPORT , BA) observed 0100 UTC 22 July 2019
Temperature: 20.0°C (68°F)
Dewpoint: 15.0°C (59°F) [RH = 73%]
Pressure (altimeter): 30.06 inches Hg (1018.0 mb)
Winds: variable direction winds at 2 MPH (2 knots; 1.0 m/s)
Visibility: 6 or more miles (10+ km)
Ceiling: at least 12,000 feet AGL
Clouds: few clouds at 5000 feet AGL
Weather: no significant weather observed at this time

METAR text: LQMO 220000Z VRB02KT 9999 FEW050 21/15 Q1018
Conditions at: LQMO (MOSTAR AIRPORT , BA) observed 0000 UTC 22 July 2019
Temperature: 21.0°C (70°F)
Dewpoint: 15.0°C (59°F) [RH = 69%]
Pressure (altimeter): 30.06 inches Hg (1018.0 mb)
Winds: variable direction winds at 2 MPH (2 knots; 1.0 m/s)
Visibility: 6 or more miles (10+ km)
Ceiling: at least 12,000 feet AGL
Clouds: few clouds at 5000 feet AGL
Weather: no significant weather observed at this time

METAR text: LQMO 212300Z VRB02KT 9999 FEW050 22/15 Q1018
Conditions at: LQMO (MOSTAR AIRPORT , BA) observed 2300 UTC 21 July 2019
Temperature: 22.0°C (72°F)
Dewpoint: 15.0°C (59°F) [RH = 65%]
Pressure (altimeter): 30.06 inches Hg (1018.0 mb)
Winds: variable direction winds at 2 MPH (2 knots; 1.0 m/s)
Visibility: 6 or more miles (10+ km)
Ceiling: at least 12,000 feet AGL
Clouds: few clouds at 5000 feet AGL
Weather: no significant weather observed at this time

METAR text: LQMO 212200Z VRB02KT 9999 FEW050 23/15 Q1018
Conditions at: LQMO (MOSTAR AIRPORT , BA) observed 2200 UTC 21 July 2019
Temperature: 23.0°C (73°F)
Dewpoint: 15.0°C (59°F) [RH = 61%]
Pressure (altimeter): 30.06 inches Hg (1018.0 mb)
Winds: variable direction winds at 2 MPH (2 knots; 1.0 m/s)
Visibility: 6 or more miles (10+ km)
Ceiling: at least 12,000 feet AGL
Clouds: few clouds at 5000 feet AGL
Weather: no significant weather observed at this time

Forecast for: LQMO (MOSTAR AIRPORT , BA)
Text: TAF LQMO 230500Z 2306/2406 33005KT CAVOK TX37/2314Z TN19/2403Z
Forecast period: 0600 UTC 23 July 2019 to 0600 UTC 24 July 2019
Forecast type: FROM: standard forecast or significant change
Winds: from the NNW (330 degrees) at 6 MPH (5 knots; 2.6 m/s)
Visibility: 6 or more miles 10+ km)
Ceiling: unknown
Clouds: missing
Weather: no significant weather forecast for this period
Text: PROB40
Forecast period: 0600 to 1800 UTC 23 July 2019
Forecast type: TEMPORARY: The following changes expected for less than half the time period
Winds: from the NNE (30 degrees) at 14 MPH (12 knots; 6.2 m/s)
Visibility: missing
Ceiling: unknown
Clouds: missing
Weather: no significant weather forecast for this period